Extreme weather reports worldwide

Rain

Station
 
Location
 
Name
 
Wind
Knots
Gust
Knots
Vis
SM
Temp/Dew
C
Baro
inHg
METAR
 
KEF BIKF Reykjavík, IS Keflavik International Airport 26 38 6.21 5/2 29.29 BIKF 262130Z 03026G38KT 9999 -RA FEW012 OVC021 05/02 Q0992
ADK PADK Adak Island, US Adak Airport 22 35 5 10/7 29.71 PADK 262056Z AUTO 11022G35KT 5SM -RA BR SCT018 BKN023 OVC029 10/08 A2971 RMK AO2 PK WND 13039/2041 SLP061 P0004 60007 T01000078 58073
YZG CYZG Salluit, CA Salluit Airport 25 32 8 8/6 29.70 CYZG 262100Z 15025G32KT 8SM -SHRA FEW010 OVC037 08/06 A2970 RMK ST1SC7 LAST STFD OBS/NEXT271300 UTC SLP073
YZP CYZP Sandspit, CA Sandspit Airport 24 31 2.5 12/11 29.34 CYZP 262128Z AUTO 15024G31KT 2 1/2SM -RA BR BKN007 BKN012 OVC110 12/11 A2934 RMK SLP936 DENSITY ALT 300FT
YQC CYHA Quaqtaq, CA Quaqtaq Airport 21 27 0.25 3/3 29.87 CYHA 262100Z 10021G27KT 1/4SM -RA FG VV003 03/03 A2987 RMK FG8 LAST OBS/NEXT 271200 UTC SLP119

Station
 
Location
 
Name
 
Wind
Knots
Gust
Knots
Vis
SM
Temp/Dew
C
Baro
inHg
METAR
 
YPW CYPW Powell River, CA Powell River Airport 15 27 8 12/12 29.75 CYPW 262105Z 11015G27KT 080V140 8SM -RA BKN006 OVC015 12/12 A2975 RMK SF7SC1 VIS N-E 21/2 LO CLD BR PRESFR SLP075 DENSITY ALT 500FT
YAZ CYAZ Tofino, CA Tofino / Long Beach Airport 17 26 2 13/12 29.69 CYAZ 262125Z 13017G26KT 2SM -RA BR OVC005 13/12 A2969 RMK ST8 VRY LGT PCPN SLP057 DENSITY ALT 100FT
YZV CYZV Sept-ÃŽles, CA Sept-ÃŽles Airport 16 26 0.75 13/13 29.59 CYZV 262100Z 09016G26KT 3/4SM R09/P6000FT/U -RA BR VV002 13/13 A2959 RMK FG8 SLP022 DENSITY ALT 400FT
ENUG 13 26 10/9 29.76 ENUG 262120Z AUTO 22013G26KT 170V250 1100NDV -RA BR OVC003/// 10/09 Q1008 W///S4
AEY BIAR Akureyri, IS Akureyri Airport 15 25 4.97 3/2 29.32 BIAR 262100Z 33015G25KT 8000 -RA FEW013 BKN019 OVC023 03/02 Q0993 RERA
YGR CYGR ÃŽles-de-la-Madeleine, CA ÃŽles-de-la-Madeleine Airport 18 24 6 16/15 29.72 CYGR 262100Z 11018G24KT 6SM -RA BR FEW050 OVC100 16/15 A2972 RMK SC2AC6 PRESFR SLP065 DENSITY ALT 400FT
YQY CYQY Sydney, CA Sydney / J.A. Douglas McCurdy Airport 17 24 15 17/16 29.81 CYQY 262123Z 14017G24KT 15SM -RA OVC009 17/16 A2981 RMK SC8 SLP095 DENSITY ALT 600FT
YPS CYPD Port Hawkesbury, CA Port Hawkesbury Airport 13 24 2.25 18/18 29.70 CYPD 262142Z AUTO 13013G24KT 110V170 2 1/4SM -RA BR OVC005 18/18 A2970 RMK VIS VRB 3/4-3 SLP061 DENSITY ALT 1100FT
TVL KTVL South Lake Tahoe, US Lake Tahoe Airport 6 23 10 22/-3 30.18 KTVL 262053Z AUTO VRB06G23KT 10SM -RA CLR 23/M04 A3018 RMK AO2 PK WND 18026/2030 SLP172 P0000 60000 T02281039 58005
UIL KUIL Quillayute, US Quillayute Airport 9 22 6 12/12 29.73 KUIL 262132Z AUTO 14009G22KT 6SM RA BR FEW009 BKN015 OVC029 13/12 A2973 RMK AO2 P0010 T01280122
YBL CYBL Campbell River, CA Campbell River Airport 12 21 3 12/11 29.72 CYBL 262100Z 13012G21KT 3SM -RA BR SCT004 BKN009 OVC020 12/11 A2972 RMK SF3SC4SC1 PRESFR SLP067 DENSITY ALT 400FT
ZMT CZMT Masset, CA Masset Airport 11 21 10 11/10 29.35 CZMT 262100Z 14011G21KT 10SM -SHRA OVC020TCU 11/10 A2935 RMK TCU8 SLP941 DENSITY ALT 200FT
YQM CYQM Moncton, CA Greater Moncton Roméo LeBlanc International Airport 11 21 10 20/20 29.48 CYQM 262105Z 16011G21KT 10SM R06/4500V6000FT/D -RA BKN005 BKN015 BKN045 20/20 A2948 RMK SF5SC1SC1 SLP983 DENSITY ALT 1500FT
TRV VOTV Thiruvananthapuram, IN Trivandrum International Airport 11 21 1.55 26/25 29.73 VOTV 262130Z 25011G21KT 2500 RA FEW008 SCT012 FEW025CB OVC080 26/25 Q1007 NOSIG
YGV CYGV Havre St-Pierre, CA Havre St Pierre Airport 11 18 5 15/14 29.73 CYGV 262115Z AUTO 10011G18KT 5SM -RA BR BKN004 OVC016 15/14 A2973 RMK SLP070 DENSITY ALT 400FT
OLM KOLM Olympia, US Olympia Regional Airport 9 18 8 17/11 29.82 KOLM 262054Z 22009G18KT 8SM -RA OVC048 17/11 A2982 RMK AO2 RAB49 SLP097 P0000 60000 T01720111 56014
KVC PAVC King Cove, US King Cove Airport 11 15 10 8/3 30.08 PAVC 262056Z AUTO 25011G15KT 10SM -RA BKN028 OVC037 08/04 A3008 RMK AO2 RAB39 SLP189 P0000 60000 T00830039 53004
ENSE 42 14/13 29.70 ENSE 262120Z AUTO 17042KT 4400NDV -SHRA BR OVC003/// 14/13 Q1006 W///S5
ENQR 37 14/13 29.70 ENQR 262120Z AUTO 16037KT 1900NDV -RA BR OVC003/// 14/13 Q1006 W///S5
ENHM 36 14/14 29.76 ENHM 262120Z AUTO 14036KT 1500NDV -SHRA BR BKN006/// OVC008/// 14/14 Q1008 W14/S/
YGP CYGP Gaspé, CA Gaspé (Michel-Pouliot) Airport 21 0.75 14/14 29.57 CYGP 262137Z 08021KT 3/4SM +RA BR SCT004 OVC005 14/14 A2957 RMK NS3NS5 PRESFR SLP016 DENSITY ALT 500FT
VLY EGOV Angelsey, GB Anglesey Airport 21 0.16 16/16 29.62 EGOV 262050Z AUTO 20021KT 0250 +RA SCT003/// BKN012/// 16/16 Q1003
GUW UATG Atyrau, KZ Atyrau Airport 19 3.11 15/13 29.70 UATG 262130Z 24010MPS 5000 -SHRA BKN023CB 15/13 Q1006 R14/CLRD70 NOSIG RMK QFE757/1009
TPQ MMEP Tepic, MX Amado Nervo National Airport 17 7 24/23 30.04 MMEP 262128Z 10017KT 7SM RA SCT025CB BKN090 24/23 A3004 RMK 8/370 RAB28
LRL DXNG Niamtougou, TG Niamtougou International Airport 16 6.21 23/20 30.00 DXNG 262100Z 06016KT 9999 -RA BKN006 FEW016CB 23/20 Q1016
BES LFRB Brest/Guipavas, FR Brest Bretagne Airport 16 6.21 17/16 29.85 LFRB 262130Z AUTO 20016KT 9999 -RA OVC010 17/16 Q1011 TEMPO 3000 SHRA BKN005 BKN015CB BECMG 20025G40KT
PEE USPP Perm, RU Bolshoye Savino Airport 16 6.21 5/2 30.03 USPP 262130Z 09008MPS 9999 -RA SCT017 05/02 Q1017 R03/190055 NOSIG RMK QFE752
ASF URWA Astrakhan, RU Astrakhan Airport 16 6.21 14/13 29.82 URWA 262130Z 25008MPS 9999 -SHRA BKN024CB 14/13 Q1010 R27/290055 NOSIG RMK QFE759/1012
STW URMT Stavropol, RU Stavropol Shpakovskoye Airport 16 6.21 12/10 29.97 URMT 262130Z 28008MPS 9999 -SHRA BKN027CB 12/10 Q1015 R25/010070 NOSIG RMK QFE723
VDS ENVD Vadsø, NO Vadsø Airport 15 6.21 8/5 29.94 ENVD 262120Z 24015KT 9999 -RA SCT022 BKN030 08/05 Q1014
MRU FIMP Port Louis, MU Sir Seewoosagur Ramgoolam International Airport 15 3.73 21/20 30.15 FIMP 262100Z 09015KT 6000 -SHRA FEW007 BKN014 21/20 Q1021
ETSN Neuburg (Donau), DE Neuburg AFB 14 3.73 16/15 30.09 ETSN 262120Z 27014KT 6000 +RA SCT030 BKN050 16/15 Q1019 RESHRA WHT
UNK PAUN Unalakleet, US Unalakleet Airport 14 8 3/2 29.89 PAUN 262138Z AUTO 21014KT 8SM -RA BKN010 OVC018 03/02 A2989 RMK AO2 RAB2057 CIG 008V013 P0002
LFRL Lanvéoc/Poulmic, FR Lanvéoc-Poulmic Air Base 14 6.21 17/17 29.85 LFRL 262130Z AUTO 20014KT 9999 -RA OVC010/// ///TCU 17/17 Q1011
RUN FMEE St Denis, RE Roland Garros Airport 13 6.21 20/19 30.12 FMEE 262130Z AUTO 13013KT 9999 -RA FEW022/// BKN049/// BKN070/// ///TCU 20/19 Q1020 TEMPO 4500 SHRA
FSS EGQK Kinloss, GB RAF Kinloss 13 6.21 13/12 29.50 EGQK 262050Z AUTO 32013KT 9999 RA BKN026/// 13/12 Q0999
BQS UHBB Blagoveschensk, RU Ignatyevo Airport 12 5.59 14/14 29.70 UHBB 262130Z 16006MPS 9000 -SHRA SCT007 BKN020CB 14/14 Q1006 R18/290350 NOSIG RMK QBB210 QFE739/0986
NAS MYNN Nassau, BS Lynden Pindling International Airport 12 6.21 26/24 30.02 MYNN 262100Z 06012KT 030V090 9999 -TSRA SCT018CB BKN050 BKN200 26/24 A3002
HFT ENHF Hammerfest, NO Hammerfest Airport 12 6.21 9/6 29.82 ENHF 262120Z 24012KT 9999 -RA FEW015 BKN030 09/06 Q1010 RMK WIND 1254FT 23019KT
VOVZ 12 1.99 26/26 29.32 VOVZ 262130Z 21012KT 3200 -TSRA SCT008 FEW025CB BKN012 OVC070 26/26 Q0993 TEMPO 2000 -TSRA
CGR SBCG Campo Grande, BR Campo Grande Airport 12 4.97 21/18 30.00 SBCG 262100Z 11012KT 8000 -TSRA FEW015 SCT045 FEW050CB BKN100 21/18 Q1016 RERA
KKA PAKK Koyuk, US Koyuk Alfred Adams Airport 11 7 3/3 29.77 PAKK 262114Z AUTO 17011KT 7SM -RA FEW007 BKN012 OVC018 03/03 A2977 RMK AO2 P0000
AZA KIWA Phoenix, US Phoenix-Mesa-Gateway Airport 11 10 22/19 30.03 KIWA 262055Z 35011KT 10SM -RA SCT020 OVC100 22/19 A3003
OTZ PAOT Kotzebue, US Ralph Wien Memorial Airport 10 7 3/2 29.73 PAOT 262142Z 19010KT 7SM -RA SCT014 OVC020 03/02 A2973 RMK AO2 P0001 T00330022
HRB ZYHB Harbin, CN Taiping Airport 10 4.97 17/16 29.88 ZYHB 262100Z 19005MPS 150V220 8000 -RA SCT040 17/16 Q1012 NOSIG